Time;durP1;ratioP1;P1;durP2;ratioP2;P2;SDS_P1;SDS_P2;PMS_P1;PMS_P2;Temp;Humidity;BMP_temperature;BMP_pressure;BME280_temperature;BME280_humidity;BME280_pressure;Samples;Min_cycle;Max_cycle;Signal;HPM_P1;HPM_P2
2022/05/22 00:00:13;;;;;;;1.48;1.15;;;11.80;1.40;;;13.15;100.00;95628.23;650533;216;36456;-74
2022/05/22 00:02:57;;;;;;;0.80;0.77;;;11.80;1.40;;;13.18;100.00;95628.45;646277;216;32130;-74
2022/05/22 00:05:39;;;;;;;1.60;0.90;;;11.70;1.40;;;13.06;100.00;95623.43;649809;216;31508;-75
2022/05/22 00:08:21;;;;;;;1.10;0.90;;;11.60;1.40;;;12.98;100.00;95618.47;647659;216;42134;-74
2022/05/22 00:11:05;;;;;;;0.80;0.80;;;11.50;1.40;;;12.97;100.00;95620.35;646364;216;32798;-74
2022/05/22 00:13:47;;;;;;;1.40;1.17;;;11.50;1.40;;;12.93;100.00;95615.35;647069;216;31529;-74
2022/05/22 00:16:37;;;;;;;1.10;1.00;;;11.50;1.40;;;12.97;100.00;95616.80;647154;212;40086;-74
2022/05/22 00:19:19;;;;;;;0.90;0.60;;;11.60;1.40;;;12.98;100.00;95624.63;649693;216;31485;-75
2022/05/22 00:22:01;;;;;;;0.85;0.85;;;11.60;1.40;;;12.98;100.00;95623.13;616242;222;31996;-74
2022/05/22 00:24:43;;;;;;;1.20;0.70;;;11.80;1.40;;;12.96;100.00;95619.02;644804;216;33250;-75
2022/05/22 00:27:24;;;;;;;1.60;1.50;;;11.80;1.40;;;13.04;100.00;95613.70;651027;216;42264;-74
2022/05/22 00:30:08;;;;;;;0.70;0.70;;;11.70;1.40;;;13.04;100.00;95609.06;644485;212;37245;-74
2022/05/22 00:32:50;;;;;;;1.23;1.00;;;11.60;1.40;;;13.18;100.00;95607.55;649802;212;31471;-75
2022/05/22 00:35:51;;;;;;;1.90;1.00;;;11.70;1.40;;;13.13;100.00;95602.91;651945;216;32209;-74
2022/05/22 00:38:33;;;;;;;1.62;1.30;;;11.70;1.40;;;13.08;100.00;95593.98;648100;216;32164;-75
2022/05/22 00:41:18;;;;;;;1.70;1.60;;;11.60;1.40;;;13.01;100.00;95590.61;648268;212;42509;-74
2022/05/22 00:44:00;;;;;;;1.90;1.52;;;11.60;1.40;;;12.87;100.00;95587.47;648244;212;37676;-74
2022/05/22 00:46:41;;;;;;;0.95;0.90;;;11.50;1.40;;;12.76;100.00;95581.07;651359;212;31590;-74
2022/05/22 00:49:26;;;;;;;1.20;1.10;;;11.30;1.40;;;12.65;100.00;95580.55;618213;226;32345;-74
2022/05/22 00:52:14;;;;;;;1.30;0.90;;;11.30;1.40;;;12.63;100.00;95582.75;647718;216;31548;-74
2022/05/22 00:54:56;;;;;;;1.10;0.90;;;11.20;1.40;;;12.50;100.00;95581.34;646562;216;32608;-74
2022/05/22 00:57:38;;;;;;;0.90;0.80;;;11.10;1.40;;;12.55;100.00;95579.39;649917;212;31495;-74
2022/05/22 01:00:20;;;;;;;1.33;0.90;;;11.00;1.40;;;12.48;100.00;95587.91;647347;212;34750;-74
2022/05/22 01:05:49;;;;;;;2.40;0.75;;;10.90;1.40;;;12.47;100.00;95579.34;649748;216;31475;-74
2022/05/22 01:08:34;;;;;;;1.00;0.80;;;11.00;1.40;;;12.44;100.00;95576.07;648434;213;31691;-75
2022/05/22 01:11:20;;;;;;;0.70;0.70;;;11.00;1.40;;;12.28;100.00;95574.77;652617;216;31839;-74
2022/05/22 01:14:03;;;;;;;0.80;0.70;;;10.90;1.40;;;12.32;100.00;95578.41;645847;216;31579;-76
2022/05/22 01:16:44;;;;;;;0.50;0.40;;;10.80;1.40;;;12.22;100.00;95575.86;645111;216;32640;-75
2022/05/22 01:19:26;;;;;;;1.70;0.90;;;10.90;1.40;;;12.39;100.00;95581.55;654382;212;31517;-74
2022/05/22 01:22:10;;;;;;;0.70;0.70;;;10.90;1.40;;;12.42;100.00;95588.63;649696;212;31477;-74
2022/05/22 01:24:52;;;;;;;1.30;0.70;;;11.00;1.40;;;12.44;100.00;95592.06;623918;222;32382;-75
2022/05/22 01:27:33;;;;;;;0.80;0.80;;;10.90;1.40;;;12.46;100.00;95588.63;648967;216;32025;-75
2022/05/22 01:30:18;;;;;;;1.10;0.52;;;11.00;1.40;;;12.41;100.00;95588.78;644725;216;33593;-74
2022/05/22 01:35:52;;;;;;;1.20;1.10;;;10.90;1.40;;;12.25;100.00;95593.23;649325;216;31657;-74
2022/05/22 01:38:36;;;;;;;4.60;0.70;;;10.80;1.40;;;12.28;100.00;95588.45;645352;216;31517;-74
2022/05/22 01:41:18;;;;;;;1.30;1.00;;;10.90;1.40;;;12.27;100.00;95577.81;645388;216;32932;-75
2022/05/22 01:43:59;;;;;;;1.02;0.93;;;10.90;1.40;;;12.41;100.00;95575.56;653323;216;31522;-75
2022/05/22 01:46:41;;;;;;;1.77;1.37;;;10.90;1.40;;;12.32;100.00;95570.52;646857;216;31574;-74
2022/05/22 01:49:23;;;;;;;0.80;0.77;;;10.90;1.40;;;12.23;100.00;95559.60;646662;212;32064;-74
2022/05/22 01:52:05;;;;;;;1.50;0.80;;;10.70;1.40;;;12.19;100.00;95567.37;646570;212;31618;-74
2022/05/22 01:54:46;;;;;;;0.50;0.50;;;10.70;1.40;;;12.15;100.00;95573.61;648082;216;31743;-75
2022/05/22 01:57:30;;;;;;;0.80;0.68;;;10.60;1.40;;;12.29;100.00;95576.16;650133;216;31482;-74
2022/05/22 02:00:12;;;;;;;0.90;0.60;;;10.70;1.40;;;12.19;100.00;95566.17;650715;212;31692;-74
2022/05/22 02:02:55;;;;;;;0.80;0.70;;;10.70;1.40;;;11.87;100.00;95564.31;646242;216;31515;-74
2022/05/22 02:05:40;;;;;;;1.27;0.98;;;10.60;1.40;;;11.95;100.00;95552.53;644813;212;31877;-74
2022/05/22 02:08:22;;;;;;;0.90;0.83;;;10.50;1.40;;;11.95;100.00;95549.25;650001;212;31571;-74
2022/05/22 02:11:03;;;;;;;1.10;0.70;;;10.50;1.40;;;11.89;100.00;95540.10;647434;216;35099;-74
2022/05/22 02:13:45;;;;;;;1.10;0.90;;;10.40;1.40;;;11.79;100.00;95542.78;647954;216;31593;-75
2022/05/22 02:16:26;;;;;;;1.00;0.70;;;10.20;1.40;;;11.75;100.00;95547.59;647752;216;31671;-75
2022/05/22 02:19:08;;;;;;;0.80;0.80;;;10.30;1.40;;;11.70;100.00;95548.81;650025;216;37797;-75
2022/05/22 02:21:50;;;;;;;0.50;0.43;;;10.20;1.40;;;11.65;100.00;95543.17;645673;216;31558;-74
2022/05/22 02:24:34;;;;;;;0.50;0.40;;;10.20;1.40;;;11.42;100.00;95540.23;649937;216;32059;-74
2022/05/22 02:27:16;;;;;;;1.02;0.90;;;10.20;1.40;;;11.43;100.00;95538.95;647419;216;31600;-75
2022/05/22 02:29:58;;;;;;;1.20;0.77;;;10.20;1.40;;;11.36;100.00;95527.95;652220;216;31596;-74
2022/05/22 02:32:39;;;;;;;1.20;0.70;;;10.10;1.40;;;11.35;100.00;95529.64;648246;216;31509;-75
2022/05/22 02:35:51;;;;;;;1.20;0.70;;;10.10;1.40;;;11.26;100.00;95527.78;650003;216;31617;-74
2022/05/22 02:38:39;;;;;;;1.20;0.40;;;10.00;1.40;;;11.29;100.00;95519.29;651390;216;42121;-81
2022/05/22 02:41:24;;;;;;;0.50;0.40;;;9.90;1.40;;;11.14;100.00;95517.05;647204;216;31603;-74
2022/05/22 02:44:05;;;;;;;1.10;0.90;;;9.80;1.40;;;11.14;100.00;95517.98;650438;216;31502;-74
2022/05/22 02:46:47;;;;;;;1.50;0.63;;;9.80;1.40;;;11.20;100.00;95516.95;646984;216;31552;-74
2022/05/22 02:49:29;;;;;;;0.90;0.60;;;9.90;1.40;;;11.27;100.00;95511.52;649753;216;42181;-74
2022/05/22 02:54:44;;;;;;;1.10;0.70;;;9.90;1.40;;;11.20;100.00;95519.61;644804;216;31501;-74
2022/05/22 02:57:26;;;;;;;1.40;0.60;;;9.90;1.40;;;11.07;100.00;95519.66;648454;212;42286;-74
2022/05/22 03:00:12;;;;;;;0.80;0.50;;;9.90;1.40;;;11.07;100.00;95523.45;650519;216;31544;-74
2022/05/22 03:02:53;;;;;;;0.50;0.50;;;9.90;1.40;;;11.06;100.00;95520.97;646368;212;31511;-74
2022/05/22 03:08:26;;;;;;;1.48;0.37;;;9.80;1.40;;;11.03;100.00;95523.17;631206;222;31809;-75
2022/05/22 03:11:07;;;;;;;0.50;0.30;;;9.60;1.40;;;10.92;100.00;95518.55;645762;216;31515;-73
2022/05/22 03:13:49;;;;;;;1.08;0.98;;;9.60;1.40;;;10.99;100.00;95519.23;651346;212;42295;-75
2022/05/22 03:16:31;;;;;;;1.90;0.60;;;9.70;1.40;;;11.03;100.00;95519.27;645962;216;42226;-74
2022/05/22 03:19:13;;;;;;;0.40;0.40;;;9.60;1.40;;;10.91;100.00;95507.36;646924;216;32947;-74
2022/05/22 03:21:57;;;;;;;0.80;0.52;;;9.50;1.40;;;10.82;100.00;95508.36;622050;222;31823;-79
2022/05/22 03:24:45;;;;;;;1.10;1.00;;;9.40;1.40;;;10.79;100.00;95502.73;651094;216;42088;-74
2022/05/22 03:27:27;;;;;;;0.83;0.50;;;9.40;1.40;;;10.77;100.00;95498.95;649315;216;31614;-74
2022/05/22 03:30:12;;;;;;;1.10;0.70;;;9.40;1.40;;;10.78;100.00;95503.22;647387;216;42687;-75
2022/05/22 03:32:53;;;;;;;1.50;0.97;;;9.40;1.40;;;10.88;100.00;95500.91;647688;216;31554;-74
2022/05/22 03:35:51;;;;;;;1.05;0.50;;;9.50;1.40;;;10.98;100.00;95494.21;645777;212;32413;-74
2022/05/22 03:41:07;;;;;;;1.10;0.80;;;9.80;1.40;;;11.21;100.00;95496.30;648223;216;42124;-73
2022/05/22 03:43:49;;;;;;;0.60;0.50;;;9.90;1.40;;;11.34;100.00;95495.09;620924;226;32021;-74
2022/05/22 03:46:30;;;;;;;1.10;0.80;;;10.00;1.40;;;11.30;100.00;95491.69;649605;212;42138;-74
2022/05/22 03:49:12;;;;;;;1.70;1.10;;;10.00;1.40;;;11.32;100.00;95495.87;647847;216;42881;-74
2022/05/22 03:51:57;;;;;;;0.60;0.40;;;10.00;1.40;;;11.17;100.00;95486.52;645274;216;31489;-73
2022/05/22 03:54:38;;;;;;;0.90;0.70;;;9.90;1.40;;;11.11;100.00;95489.29;618372;226;42500;-74
2022/05/22 03:57:20;;;;;;;0.80;0.80;;;9.90;1.40;;;11.12;100.00;95485.73;616208;222;42790;-74
2022/05/22 04:00:02;;;;;;;0.60;0.60;;;9.90;1.40;;;11.11;100.00;95484.03;647399;212;42089;-75
2022/05/22 04:05:19;;;;;;;0.77;0.70;;;10.00;1.40;;;11.44;100.00;95480.91;645722;216;33605;-74
2022/05/22 04:08:00;;;;;;;1.10;1.00;;;10.20;1.40;;;11.67;100.00;95483.83;647301;216;31527;-74
2022/05/22 04:10:42;;;;;;;1.10;1.00;;;10.30;1.40;;;11.98;100.00;95484.61;651330;216;31565;-75
2022/05/22 04:13:27;;;;;;;0.88;0.77;;;10.70;1.40;;;12.09;100.00;95488.66;649536;216;33040;-74
2022/05/22 04:16:08;;;;;;;1.17;1.00;;;10.80;1.40;;;12.09;100.00;95493.27;644107;216;31486;-74
2022/05/22 04:18:50;;;;;;;1.00;0.80;;;10.70;1.40;;;12.07;100.00;95493.80;650168;216;31509;-74
2022/05/22 04:21:32;;;;;;;1.10;0.93;;;10.60;1.40;;;11.86;100.00;95495.84;645825;212;31479;-74
2022/05/22 04:27:04;;;;;;;0.90;0.80;;;10.40;1.40;;;11.88;100.00;95502.52;650740;212;31632;-74
2022/05/22 04:29:46;;;;;;;0.60;0.60;;;10.40;1.40;;;11.83;100.00;95497.11;618305;226;32532;-74
2022/05/22 04:32:28;;;;;;;1.42;1.33;;;10.50;1.40;;;11.84;100.00;95495.84;650291;216;31537;-74
2022/05/22 04:35:51;;;;;;;1.00;0.68;;;10.50;1.40;;;11.98;100.00;95493.97;648650;216;32142;-74
2022/05/22 04:38:32;;;;;;;1.10;0.70;;;10.60;1.40;;;12.02;100.00;95494.24;649467;216;31714;-74
2022/05/22 04:41:16;;;;;;;0.95;0.50;;;10.70;1.40;;;12.14;100.00;95496.71;649662;216;31759;-74
2022/05/22 04:43:56;;;;;;;0.90;0.70;;;10.80;1.40;;;12.19;100.00;95502.50;649991;212;31563;-74
2022/05/22 04:46:38;;;;;;;0.70;0.60;;;10.90;1.40;;;12.09;100.00;95505.62;650387;216;31500;-74
2022/05/22 04:49:19;;;;;;;1.43;1.00;;;11.00;1.40;;;12.09;100.00;95503.97;653088;216;31492;-73
2022/05/22 04:52:01;;;;;;;0.83;0.83;;;10.90;1.40;;;12.05;100.00;95508.13;622228;226;32839;-74
2022/05/22 04:54:43;;;;;;;2.00;1.05;;;11.00;1.40;;;11.97;100.00;95502.42;618366;226;32137;-74
2022/05/22 04:57:24;;;;;;;0.90;0.70;;;11.00;1.40;;;12.01;100.00;95493.56;649327;216;31546;-74
2022/05/22 05:00:07;;;;;;;1.70;0.88;;;11.00;1.40;;;12.11;100.00;95484.84;646252;212;31800;-74
2022/05/22 05:02:49;;;;;;;1.10;0.80;;;11.10;1.40;;;12.24;100.00;95480.36;616685;226;31937;-74
2022/05/22 05:05:30;;;;;;;1.20;1.10;;;11.20;1.40;;;12.46;100.00;95479.39;647192;212;31550;-74
2022/05/22 05:08:12;;;;;;;2.40;1.10;;;11.30;1.40;;;12.63;100.00;95480.75;648239;216;31688;-73
2022/05/22 05:10:54;;;;;;;0.60;0.50;;;11.60;1.40;;;12.75;100.00;95481.03;647113;216;32107;-74
2022/05/22 05:13:37;;;;;;;1.05;0.95;;;11.80;1.40;;;12.84;100.00;95474.00;649944;212;42126;-74
2022/05/22 05:16:21;;;;;;;1.48;1.20;;;11.90;1.40;;;13.05;100.00;95469.08;646555;216;38775;-74
2022/05/22 05:19:02;;;;;;;2.50;1.17;;;12.10;1.40;;;13.23;100.00;95461.20;627873;221;31754;-75
2022/05/22 05:21:47;;;;;;;0.93;0.83;;;12.30;1.40;;;13.38;100.00;95467.52;646102;212;31458;-75
2022/05/22 05:24:28;;;;;;;1.20;1.10;;;12.50;1.40;;;13.52;100.00;95469.88;646545;212;35507;-74
2022/05/22 05:27:10;;;;;;;4.55;1.60;;;12.50;1.40;;;13.56;100.00;95479.84;650573;212;31668;-74
2022/05/22 05:29:52;;;;;;;1.20;1.10;;;12.50;1.40;;;13.70;100.00;95474.00;648690;216;32172;-75
2022/05/22 05:32:33;;;;;;;1.10;1.00;;;12.60;1.40;;;13.81;100.00;95475.58;649456;212;31735;-75
2022/05/22 05:35:51;;;;;;;1.67;1.58;;;12.80;1.40;;;13.94;100.00;95475.18;647248;216;31552;-74
2022/05/22 05:41:10;;;;;;;0.80;0.80;;;12.90;1.40;;;14.12;100.00;95462.95;646737;216;32342;-74
2022/05/22 05:43:52;;;;;;;1.10;1.00;;;13.10;1.40;;;14.27;100.00;95461.36;649830;216;31635;-74
2022/05/22 05:46:36;;;;;;;1.17;1.08;;;13.30;1.40;;;14.38;100.00;95458.80;647705;216;31700;-74
2022/05/22 05:49:18;;;;;;;2.87;1.10;;;13.50;1.40;;;14.48;100.00;95463.09;644619;212;42119;-74
2022/05/22 05:51:59;;;;;;;1.20;1.00;;;13.20;1.40;;;14.40;100.00;95462.32;646686;212;31489;-73
2022/05/22 05:54:41;;;;;;;2.10;0.80;;;12.90;1.40;;;14.35;100.00;95455.03;646988;216;31467;-73
2022/05/22 05:57:23;;;;;;;2.80;0.90;;;13.00;1.40;;;14.34;100.00;95453.83;619177;222;31786;-74
2022/05/22 06:00:06;;;;;;;4.07;0.88;;;12.90;1.40;;;14.24;100.00;95440.34;620357;226;31851;-73
2022/05/22 06:02:48;;;;;;;1.20;0.80;;;12.80;1.40;;;14.13;100.00;95437.20;646378;216;31520;-73
2022/05/22 06:08:08;;;;;;;0.80;0.68;;;12.80;1.40;;;14.24;100.00;95440.41;649664;212;31686;-72
2022/05/22 06:10:52;;;;;;;1.48;0.62;;;13.00;1.40;;;14.28;100.00;95436.23;645189;216;31499;-74
2022/05/22 06:13:32;;;;;;;1.70;1.40;;;13.20;1.40;;;14.32;100.00;95428.68;648768;212;31635;-73
2022/05/22 06:16:13;;;;;;;1.20;1.00;;;13.60;1.40;;;14.31;100.00;95423.59;647472;216;44689;-72
2022/05/22 06:18:55;;;;;;;0.80;0.70;;;13.70;1.40;;;14.55;100.00;95427.19;616977;222;31906;-72
2022/05/22 06:21:37;;;;;;;1.02;0.90;;;14.10;1.40;;;14.58;100.00;95413.55;646038;216;31542;-73
2022/05/22 06:24:18;;;;;;;1.50;1.40;;;14.30;1.40;;;14.66;100.00;95412.91;649914;212;31522;-73
2022/05/22 06:27:00;;;;;;;1.70;0.80;;;14.50;1.40;;;14.63;100.00;95408.86;645273;216;31776;-74
2022/05/22 06:29:42;;;;;;;2.65;0.95;;;14.50;1.40;;;14.83;100.00;95404.67;646272;216;31463;-72
2022/05/22 06:32:24;;;;;;;1.10;0.70;;;14.80;1.40;;;15.01;100.00;95402.95;650330;216;31583;-73
2022/05/22 06:35:56;;;;;;;0.70;0.70;;;15.10;1.40;;;15.27;100.00;95403.51;649818;216;42112;-82
2022/05/22 06:41:34;;;;;;;0.90;0.60;;;15.20;1.40;;;15.87;100.00;95398.79;648373;216;31473;-73
2022/05/22 06:44:17;;;;;;;0.60;0.50;;;15.50;1.40;;;16.04;100.00;95399.97;651822;216;31458;-73
2022/05/22 06:46:59;;;;;;;1.48;0.88;;;15.60;1.40;;;16.18;100.00;95396.48;616569;225;31986;-74
2022/05/22 06:49:41;;;;;;;1.00;0.70;;;15.70;1.40;;;16.38;100.00;95398.16;620640;226;31943;-74
2022/05/22 06:52:25;;;;;;;1.90;0.80;;;15.70;1.40;;;16.45;100.00;95389.81;654986;216;31507;-74
2022/05/22 06:55:07;;;;;;;1.30;0.75;;;15.70;1.40;;;16.54;100.00;95390.50;649064;212;31721;-74
2022/05/22 06:57:49;;;;;;;1.20;0.63;;;15.80;1.40;;;16.75;100.00;95390.86;649368;216;42449;-73
2022/05/22 07:00:34;;;;;;;1.02;0.70;;;15.90;1.40;;;17.00;100.00;95387.71;650474;216;31496;-74
2022/05/22 07:03:16;;;;;;;2.00;0.60;;;16.10;1.40;;;17.20;100.00;95387.03;645333;212;33240;-74
2022/05/22 07:06:00;;;;;;;1.30;0.90;;;16.40;1.40;;;17.30;100.00;95379.88;646595;216;31801;-73
2022/05/22 07:08:42;;;;;;;0.90;0.75;;;16.40;1.40;;;17.40;100.00;95377.94;649298;212;31628;-73
2022/05/22 07:14:12;;;;;;;0.50;0.50;;;16.70;1.40;;;17.77;100.00;95380.83;645591;212;31691;-75
2022/05/22 07:16:52;;;;;;;0.70;0.70;;;16.80;1.40;;;17.83;100.00;95381.22;620571;222;31954;-73
2022/05/22 07:19:37;;;;;;;0.80;0.80;;;16.80;1.40;;;18.04;98.93;95376.79;648916;216;31503;-74
2022/05/22 07:22:16;;;;;;;0.80;0.65;;;17.00;1.40;;;18.06;93.26;95374.53;647893;216;31565;-73
2022/05/22 07:24:58;;;;;;;1.30;1.08;;;17.10;1.40;;;18.08;94.15;95377.70;646018;216;31541;-76
2022/05/22 07:27:41;;;;;;;1.12;0.50;;;17.00;1.40;;;18.20;91.60;95371.45;645169;212;31494;-74
2022/05/22 07:30:21;;;;;;;0.90;0.73;;;17.10;1.40;;;18.45;90.42;95371.31;618776;225;31820;-76
2022/05/22 07:35:56;;;;;;;1.40;0.90;;;17.60;1.40;;;18.50;87.43;95372.39;642101;216;31564;-74
2022/05/22 07:38:37;;;;;;;1.15;0.95;;;17.30;1.40;;;18.65;91.03;95366.67;648708;216;31485;-74
2022/05/22 07:41:19;;;;;;;0.60;0.50;;;17.40;1.40;;;18.79;89.58;95367.46;645157;216;31476;-74
2022/05/22 07:44:01;;;;;;;1.00;0.90;;;17.40;1.40;;;18.80;88.48;95368.58;648569;216;31524;-74
2022/05/22 07:46:49;;;;;;;1.00;0.90;;;17.70;1.40;;;19.00;86.90;95363.66;643259;215;31550;-79
2022/05/22 07:52:23;;;;;;;1.10;0.70;;;17.70;1.40;;;18.93;83.82;95359.28;649307;216;31462;-75
2022/05/22 07:55:14;;;;;;;0.65;0.60;;;17.70;1.40;;;19.25;85.92;95355.16;648169;216;31581;-74
2022/05/22 07:57:48;;;;;;;0.75;0.60;;;18.20;1.40;;;19.44;85.90;95354.59;621268;226;32138;-74
2022/05/22 08:00:29;;;;;;;1.13;0.80;;;18.30;1.40;;;19.42;81.43;95352.61;650360;216;32709;-74
2022/05/22 08:03:11;;;;;;;1.20;0.70;;;18.30;1.40;;;19.61;83.68;95350.89;647690;216;32032;-74
2022/05/22 08:05:54;;;;;;;0.80;0.70;;;18.30;1.40;;;19.79;84.61;95355.16;647232;216;31821;-74
2022/05/22 08:08:34;;;;;;;1.40;0.93;;;18.40;1.40;;;19.60;84.43;95349.86;647711;216;31555;-75
2022/05/22 08:11:16;;;;;;;0.68;0.60;;;18.50;1.40;;;19.77;82.89;95349.77;647667;212;31487;-74
2022/05/22 08:13:58;;;;;;;0.60;0.60;;;18.60;1.40;;;19.53;79.65;95354.58;646557;216;31613;-74
2022/05/22 08:16:46;;;;;;;1.30;0.60;;;18.30;1.40;;;19.60;80.08;95347.68;649143;212;31525;-79
2022/05/22 08:19:29;;;;;;;0.90;0.57;;;18.50;1.40;;;19.83;80.54;95344.12;645617;212;32084;-76
2022/05/22 08:22:11;;;;;;;1.10;0.68;;;18.80;1.40;;;19.99;82.09;95337.90;650572;212;32079;-75
2022/05/22 08:24:53;;;;;;;1.23;0.90;;;18.90;1.40;;;20.37;81.80;95336.84;645445;216;32378;-74
2022/05/22 08:27:37;;;;;;;1.73;0.80;;;19.40;1.40;;;20.56;79.47;95332.77;646451;216;31600;-74
2022/05/22 08:30:19;;;;;;;0.80;0.60;;;19.60;1.40;;;20.69;79.04;95326.52;631597;222;42332;-76
2022/05/22 08:33:01;;;;;;;0.50;0.50;;;19.70;1.40;;;20.90;75.78;95324.20;649924;216;42274;-75
2022/05/22 08:35:56;;;;;;;0.80;0.60;;;19.90;1.40;;;21.22;78.32;95317.73;643981;216;32002;-74
2022/05/22 08:38:38;;;;;;;0.50;0.40;;;20.20;1.40;;;21.06;74.22;95326.00;647500;212;31467;-75
2022/05/22 08:41:23;;;;;;;0.80;0.47;;;19.80;1.40;;;21.04;68.43;95322.51;651690;216;31535;-74
2022/05/22 08:44:12;;;;;;;0.70;0.60;;;19.70;1.40;;;21.15;67.03;95325.48;646660;216;31471;-74
2022/05/22 08:47:01;;;;;;;0.55;0.40;;;19.70;1.40;;;20.97;68.66;95320.81;623007;225;31813;-74
2022/05/22 08:50:01;;;;;;;0.80;0.40;;;20.00;1.40;;;21.48;69.43;95314.37;618793;222;31809;-75
2022/05/22 08:52:52;;;;;;;2.08;0.60;;;20.60;1.40;;;21.68;68.62;95313.39;646395;216;31471;-75
2022/05/22 09:01:12;;;;;;;1.12;0.50;;;20.50;1.40;;;21.80;64.82;95312.22;644985;212;31482;-74
2022/05/22 09:03:59;;;;;;;0.65;0.60;;;20.50;1.40;;;22.23;63.60;95311.25;652724;212;31561;-75
2022/05/22 09:06:45;;;;;;;0.60;0.50;;;20.90;1.40;;;22.48;59.23;95309.73;622295;222;32091;-75
2022/05/22 09:09:27;;;;;;;1.00;0.60;;;21.00;1.40;;;22.43;60.86;95307.72;616487;226;32167;-75
2022/05/22 09:12:27;;;;;;;0.70;0.70;;;21.10;1.40;;;22.76;63.81;95307.13;623139;226;32083;-74
2022/05/22 09:18:09;;;;;;;0.60;0.60;;;21.50;1.40;;;24.08;57.75;95299.00;622758;226;32646;-75
2022/05/22 09:20:56;;;;;;;1.00;0.60;;;25.50;1.40;;;26.51;54.59;95292.84;647340;216;31612;-75
2022/05/22 09:24:02;;;;;;;0.60;0.60;;;28.90;1.40;;;26.93;49.06;95292.31;647108;212;42680;-75
2022/05/22 09:27:13;;;;;;;0.60;0.50;;;28.10;1.40;;;26.96;47.46;95294.77;647784;216;31544;-75
2022/05/22 09:30:09;;;;;;;1.20;0.90;;;28.10;1.40;;;27.53;48.27;95289.97;649148;212;31509;-76
2022/05/22 09:36:09;;;;;;;4.10;0.70;;;28.70;1.40;;;28.78;42.69;95286.20;648652;212;31478;-75
2022/05/22 09:39:02;;;;;;;0.93;0.73;;;27.40;1.40;;;30.11;45.36;95279.38;645792;216;42158;-75
2022/05/22 09:41:55;;;;;;;0.90;0.55;;;28.60;1.40;;;31.32;43.56;95267.23;618777;225;31801;-76
2022/05/22 09:45:05;;;;;;;1.30;0.60;;;28.80;1.40;;;30.74;40.04;95266.75;644529;216;31578;-78
2022/05/22 09:50:33;;;;;;;0.95;0.70;;;27.50;1.40;;;30.63;42.99;95257.55;649888;212;31588;-75
2022/05/22 09:53:31;;;;;;;0.70;0.40;;;27.80;1.40;;;31.67;39.67;95254.59;643842;212;31784;-77
2022/05/22 09:59:06;;;;;;;1.62;0.70;;;28.80;1.40;;;32.36;38.02;95246.52;647680;216;31536;-77
2022/05/22 10:01:54;;;;;;;2.50;0.70;;;29.70;1.40;;;31.11;39.96;95243.98;645752;212;31852;-76
2022/05/22 10:04:52;;;;;;;1.23;0.60;;;29.10;1.40;;;30.66;41.55;95236.59;645479;216;31509;-77
2022/05/22 10:07:36;;;;;;;1.55;1.10;;;28.90;1.40;;;31.80;37.30;95232.02;646150;216;32254;-77
2022/05/22 10:10:41;;;;;;;0.98;0.50;;;29.50;1.40;;;33.67;37.78;95230.06;634939;216;32332;-73
2022/05/22 10:13:43;;;;;;;0.80;0.62;;;29.60;1.40;;;32.33;37.33;95226.91;644877;216;32281;-74
2022/05/22 10:16:48;;;;;;;0.70;0.70;;;29.50;1.40;;;31.26;37.54;95229.45;649070;216;31534;-74
2022/05/22 10:19:44;;;;;;;1.00;0.62;;;28.90;1.40;;;34.49;37.53;95225.74;648733;212;32089;-74
2022/05/22 10:22:39;;;;;;;0.60;0.50;;;30.00;1.40;;;35.14;37.25;95220.87;650276;216;31575;-73
2022/05/22 10:25:48;;;;;;;1.20;0.60;;;31.20;1.40;;;32.98;35.94;95230.83;647887;216;42231;-77
2022/05/22 10:28:35;;;;;;;1.10;0.80;;;29.50;1.40;;;34.02;37.69;95228.69;653199;216;31865;-74
2022/05/22 10:31:23;;;;;;;2.10;0.60;;;30.00;1.40;;;34.97;32.54;95225.48;621272;222;31837;-74
2022/05/22 10:36:05;;;;;;;1.20;0.98;;;29.30;1.40;;;33.88;33.64;95222.99;645825;212;31511;-73
2022/05/22 10:39:12;;;;;;;0.75;0.60;;;29.70;1.40;;;34.02;32.17;95222.70;647142;212;31531;-78
2022/05/22 10:44:54;;;;;;;0.60;0.60;;;29.20;1.40;;;34.47;31.27;95214.02;647675;216;31469;-74
2022/05/22 10:47:41;;;;;;;1.50;0.60;;;29.30;1.40;;;34.89;31.09;95205.97;646720;216;31516;-78
2022/05/22 10:50:34;;;;;;;0.90;0.70;;;29.90;1.40;;;33.05;31.21;95209.94;650865;216;31550;-74
2022/05/22 10:53:40;;;;;;;1.00;0.55;;;28.70;1.40;;;34.66;33.12;95200.70;621824;222;42576;-71
2022/05/22 10:56:26;;;;;;;1.12;0.75;;;29.10;1.40;;;35.86;31.00;95192.22;647911;216;33015;-71
2022/05/22 10:59:26;;;;;;;1.00;0.70;;;29.00;1.40;;;36.16;31.12;95189.20;632287;217;42319;-71
2022/05/22 11:02:07;;;;;;;0.60;0.47;;;30.40;1.40;;;36.82;30.21;95185.66;649564;212;42121;-72
2022/05/22 11:04:49;;;;;;;0.70;0.60;;;30.40;1.40;;;37.41;28.05;95173.23;645408;212;42376;-71
2022/05/22 11:10:07;;;;;;;0.50;0.40;;;31.10;1.40;;;37.12;29.52;95168.45;646592;216;31552;-72
2022/05/22 11:13:03;;;;;;;1.00;0.60;;;31.20;1.40;;;34.86;29.91;95170.13;646493;216;31676;-72
2022/05/22 11:15:43;;;;;;;2.00;0.70;;;29.70;1.40;;;34.68;30.65;95171.66;646266;216;31513;-72
2022/05/22 11:18:25;;;;;;;0.60;0.60;;;30.00;1.40;;;36.32;28.22;95168.80;645849;216;31563;-72
2022/05/22 11:21:18;;;;;;;0.90;0.50;;;30.10;1.40;;;36.11;27.33;95166.83;648194;216;31520;-71
2022/05/22 11:24:27;;;;;;;1.50;0.50;;;29.30;1.40;;;35.09;29.55;95160.52;647762;216;31482;-72
2022/05/22 11:27:22;;;;;;;0.60;0.60;;;29.00;1.40;;;35.86;30.12;95162.27;647610;216;31578;-71
2022/05/22 11:30:55;;;;;;;0.88;0.80;;;29.10;1.40;;;36.78;27.43;95159.58;635589;217;31840;-72
2022/05/22 11:36:10;;;;;;;0.70;0.70;;;29.40;1.40;;;36.97;29.97;95148.93;645611;212;42194;-72
2022/05/22 11:39:05;;;;;;;0.70;0.55;;;29.80;1.40;;;34.61;30.86;95144.98;648843;212;31823;-77
2022/05/22 11:41:53;;;;;;;0.98;0.80;;;29.60;1.40;;;36.80;28.51;95140.05;649679;216;31512;-75
2022/05/22 11:47:35;;;;;;;2.10;0.80;;;30.30;1.40;;;39.35;26.66;95127.66;650820;212;31503;-76
2022/05/22 11:50:28;;;;;;;2.80;0.60;;;30.50;1.40;;;37.29;28.08;95130.95;647038;212;31467;-75
2022/05/22 11:53:19;;;;;;;0.95;0.88;;;29.90;1.40;;;36.46;28.84;95128.66;647895;212;31485;-76
2022/05/22 11:56:15;;;;;;;0.90;0.80;;;29.50;1.40;;;38.21;27.66;95122.52;647331;212;31519;-75
2022/05/22 11:59:24;;;;;;;1.00;0.70;;;30.50;1.40;;;37.40;26.92;95117.45;621266;222;31806;-76
2022/05/22 12:02:12;;;;;;;0.80;0.70;;;29.90;1.40;;;38.69;24.97;95119.30;647612;212;32122;-75
2022/05/22 12:07:58;;;;;;;1.05;0.65;;;29.40;1.40;;;37.89;27.75;95112.65;649361;216;31523;-76
2022/05/22 12:10:46;;;;;;;0.95;0.80;;;30.10;1.40;;;38.99;26.90;95105.92;647457;216;31510;-75
2022/05/22 12:13:33;;;;;;;1.00;0.60;;;30.40;1.40;;;39.14;26.55;95095.27;650562;216;31591;-76
2022/05/22 12:16:21;;;;;;;0.55;0.55;;;30.50;1.40;;;38.39;27.66;95098.03;645788;212;31475;-75
2022/05/22 12:22:06;;;;;;;1.05;0.60;;;30.10;1.40;;;37.54;27.02;95093.53;648170;212;42184;-73
2022/05/22 12:27:31;;;;;;;0.70;0.50;;;30.10;1.40;;;38.12;25.40;95088.27;643665;218;31483;-75
2022/05/22 12:32:57;;;;;;;1.30;0.73;;;29.50;1.40;;;38.27;24.91;95081.52;646678;212;31578;-74
2022/05/22 12:35:53;;;;;;;1.50;0.50;;;30.40;1.40;;;37.54;27.12;95086.06;621870;226;31825;-76
2022/05/22 12:38:51;;;;;;;0.85;0.50;;;30.00;1.40;;;38.43;25.92;95082.55;651111;216;31484;-76
2022/05/22 12:44:12;;;;;;;1.00;0.80;;;30.40;1.40;;;37.74;25.57;95092.11;645597;216;31734;-76
2022/05/22 12:46:57;;;;;;;1.30;0.70;;;29.80;1.40;;;37.75;24.61;95096.66;648762;212;31569;-75
2022/05/22 12:49:38;;;;;;;0.93;0.80;;;29.80;1.40;;;38.37;25.16;95091.08;617421;222;31834;-76
2022/05/22 12:55:09;;;;;;;0.60;0.52;;;30.40;1.40;;;35.42;24.70;95097.06;624634;222;31891;-75
2022/05/22 12:57:59;;;;;;;1.70;0.60;;;28.40;1.40;;;33.96;26.12;95095.10;650296;212;31579;-75
2022/05/22 13:00:44;;;;;;;1.37;0.70;;;27.40;1.40;;;33.91;26.16;95094.45;647080;212;31494;-75
2022/05/22 13:03:27;;;;;;;0.70;0.70;;;27.70;1.40;;;32.90;26.65;95091.42;644617;216;31503;-76